createdAt,value
2022-11-24T05:05:06.213Z,19.66
2022-11-24T05:08:09.235Z,19.67
2022-11-24T05:11:11.993Z,19.70
2022-11-24T05:14:14.664Z,19.73
2022-11-24T05:17:17.606Z,19.74
2022-11-24T05:20:21.941Z,19.74
2022-11-24T05:23:25.087Z,19.74
2022-11-24T05:26:28.159Z,19.75
2022-11-24T05:29:30.947Z,19.75
2022-11-24T05:32:33.872Z,19.74
2022-11-24T05:35:36.905Z,19.74
2022-11-24T05:38:39.672Z,19.75
2022-11-24T05:41:42.739Z,19.74
2022-11-24T05:44:45.415Z,19.73
2022-11-24T05:47:49.518Z,19.70
2022-11-24T05:50:56.742Z,19.69
2022-11-24T05:53:59.518Z,19.67
2022-11-24T05:57:02.644Z,19.67
2022-11-24T06:00:07.346Z,19.67
2022-11-24T06:03:15.207Z,19.67
2022-11-24T06:06:17.962Z,19.68
2022-11-24T06:09:21.201Z,19.75
2022-11-24T06:12:23.957Z,19.85
2022-11-24T06:15:26.751Z,19.92
2022-11-24T06:18:29.503Z,20.02
2022-11-24T06:21:32.594Z,20.10
2022-11-24T06:24:35.615Z,20.17
2022-11-24T06:27:38.579Z,20.24
2022-11-24T06:30:41.280Z,20.26
2022-11-24T06:33:44.512Z,20.30
2022-11-24T06:36:47.362Z,20.35
2022-11-24T06:39:50.222Z,20.42
2022-11-24T06:42:53.292Z,20.47
2022-11-24T06:45:56.981Z,20.53
2022-11-24T06:49:00.852Z,20.60
2022-11-24T06:52:03.715Z,20.67
2022-11-24T06:55:16.124Z,20.74
2022-11-24T06:58:27.317Z,20.79
2022-11-24T07:01:30.500Z,20.84
2022-11-24T07:04:34.136Z,20.90
2022-11-24T07:07:37.180Z,20.93
2022-11-24T07:10:39.995Z,20.99
2022-11-24T07:13:43.925Z,21.00
2022-11-24T07:16:46.736Z,21.03
2022-11-24T07:19:49.605Z,21.04
2022-11-24T07:22:57.074Z,21.05
2022-11-24T07:26:05.218Z,21.05
2022-11-24T07:29:09.855Z,20.79
2022-11-24T07:32:12.685Z,20.53
2022-11-24T07:35:15.467Z,20.49
2022-11-24T07:38:18.208Z,20.54
2022-11-24T07:41:21.054Z,20.64
2022-11-24T07:44:26.919Z,20.75
2022-11-24T07:47:29.688Z,20.84
2022-11-24T07:50:32.648Z,20.87
2022-11-24T07:53:36.060Z,20.74
2022-11-24T07:56:38.817Z,20.64
2022-11-24T07:59:41.645Z,20.65
2022-11-24T08:02:44.776Z,20.70
2022-11-24T08:09:23.296Z,20.87
2022-11-24T08:12:26.027Z,20.94
2022-11-24T08:15:29.586Z,21.01
2022-11-24T08:18:32.982Z,21.08
2022-11-24T08:21:35.898Z,21.14
2022-11-24T08:24:46.435Z,21.21
2022-11-24T08:27:49.234Z,21.26
2022-11-24T08:30:52.279Z,21.31
2022-11-24T08:33:56.109Z,21.38
2022-11-24T08:36:58.848Z,21.41
2022-11-24T08:40:01.593Z,21.46
2022-11-24T08:43:04.481Z,21.49
2022-11-24T08:46:10.791Z,21.55
2022-11-24T08:49:16.566Z,21.59
2022-11-24T08:52:39.899Z,21.65
2022-11-24T08:55:42.807Z,21.68
2022-11-24T08:58:45.596Z,21.73
2022-11-24T09:01:49.795Z,21.77
2022-11-24T09:04:53.785Z,21.78
2022-11-24T09:07:58.443Z,21.77
2022-11-24T09:11:02.587Z,21.78
2022-11-24T09:14:05.667Z,21.78
2022-11-24T09:17:08.552Z,21.78
2022-11-24T09:20:11.399Z,21.80
2022-11-24T09:23:14.845Z,21.80
2022-11-24T09:26:28.283Z,21.79
2022-11-24T09:29:31.252Z,21.81
2022-11-24T09:32:34.050Z,21.82
2022-11-24T09:36:08.628Z,21.84
2022-11-24T09:39:12.567Z,21.86
2022-11-24T09:42:53.379Z,21.87
2022-11-24T09:46:06.890Z,21.89
2022-11-24T09:49:35.124Z,21.89
2022-11-24T09:52:38.183Z,21.91
2022-11-24T09:55:50.364Z,21.92
2022-11-24T09:59:15.806Z,21.96
2022-11-24T10:02:50.893Z,22.01
2022-11-24T10:05:53.799Z,22.05
2022-11-24T10:09:21.106Z,22.08
2022-11-24T10:12:28.192Z,22.12
2022-11-24T10:15:55.488Z,22.18
2022-11-24T10:19:33.902Z,22.23
2022-11-24T10:22:44.889Z,22.30
